map of LUZ home
Great Circle Mapper logo
LUZ - Airport
Location
City:  Lublin, Lubelskie, Poland
Near (Alt.):Swidnik
Name:Lublin Airport
ICAO / IATA:EPLB / LUZ

Details
Type:Airport (Aerodrome, Airfield)
Use:Public/Civil, International (customs port of entry)
Latitude:5114'25"N (51.240278)
Longitude:2242'49"E (22.713611)
Elevation:633 ft (193 m)
Variation:5.85E (WMM2015 magnetic declination)
0.12 annual change

Time
Time Zone:UTC+1 (DST+2)
Local Time:

Weather
METAR:EPLB 121730Z 18005KT CAVOK 04/M01 Q1007

Related Locations
Nearby:
Farthest:CHT: 11408 mi / 18359 km
Waitangi [Tuuta], Chatham Islands, NZ

Find:

   beyond  
but within

Other Information
Maps:
NOTAMs:
Links:
Sources:

  
flag of Poland
flag of Lubelskie
flag of Lublin
  

Sectional Chart

Flight Planning
at skyvector.com

Satellite Image

Google Maps Satellite view

 

Copyright © 2004-2016 Karl L. Swartz. All rights reserved.
The Great Circle Mapper name and logo are trademarks of the Great Circle Mapper.
All other trademarks mentioned herein belong to their respective owners.
Please see credits for attibutions and further copyright information.

  Follow gcmap on Facebook Follow gcmap on Twitter Follow gcmap on Google+ GCmap on LinkedIn

hCard Microformat

Geo Microformat